Terminal Aerodrome Forecast
Issued by NWS

Home | Current Version | Previous Version | Text Only | Print | Product List | Glossary On
Versions: 1 2 3 4 5 6 7 8 9 10 11 12 13 14 15 16 17 18
106
FTUS41 KCAR 191938 AAA
TAFPQI
TAF AMD
KPQI 191938Z 1920/2018 24005KT P6SM OVC015
     FM192100 25005KT P6SM OVC020
     FM200600 29005KT P6SM BKN015
     FM200900 33004KT P6SM SCT040
     FM201000 33004KT P6SM BKN025=

USA.gov is the U.S. government's official web portal to all federal, state and local government web resources and services.